Time;durP1;ratioP1;P1;durP2;ratioP2;P2;SDS_P1;SDS_P2;PMS_P1;PMS_P2;Temp;Humidity;BMP_temperature;BMP_pressure;BME280_temperature;BME280_humidity;BME280_pressure;Samples;Min_cycle;Max_cycle;Signal;HPM_P1;HPM_P2
2024/03/21 00:00:10;;;;;;;;;;;;;;;12.46;46.29;100994.16;4982398;27;98234;-72
2024/03/21 00:02:39;;;;;;;;;;;;;;;12.45;46.20;100987.09;4986804;27;98256;-69
2024/03/21 00:05:06;;;;;;;;;;;;;;;12.44;46.14;100993.59;4968476;27;97984;-72
2024/03/21 00:07:33;;;;;;;;;;;;;;;12.42;46.29;100985.78;4988454;27;99383;-72
2024/03/21 00:09:59;;;;;;;;;;;;;;;12.41;46.18;100986.81;4982178;27;98240;-69
2024/03/21 00:12:25;;;;;;;;;;;;;;;12.41;46.04;100980.63;4978845;27;98089;-72
2024/03/21 00:14:52;;;;;;;;;;;;;;;12.41;46.33;100980.63;4967145;27;97971;-72
2024/03/21 00:17:19;;;;;;;;;;;;;;;12.39;46.18;100980.91;4979893;27;98562;-72
2024/03/21 00:19:45;;;;;;;;;;;;;;;12.39;46.32;100975.50;4945228;27;99535;-72
2024/03/21 00:22:11;;;;;;;;;;;;;;;12.38;46.17;100968.47;4966193;27;98309;-69
2024/03/21 00:24:38;;;;;;;;;;;;;;;12.38;46.09;100970.31;4960563;27;98480;-72
2024/03/21 00:27:07;;;;;;;;;;;;;;;12.36;46.02;100970.59;4981088;27;98168;-69
2024/03/21 00:29:33;;;;;;;;;;;;;;;12.34;46.15;100966.53;4968317;27;100796;-69
2024/03/21 00:32:00;;;;;;;;;;;;;;;12.34;46.22;100966.53;4981614;27;98755;-69
2024/03/21 00:34:26;;;;;;;;;;;;;;;12.33;46.24;100962.22;4974077;27;98359;-69
2024/03/21 00:36:53;;;;;;;;;;;;;;;12.31;46.18;100959.78;4982785;27;98154;-72
2024/03/21 00:39:20;;;;;;;;;;;;;;;12.30;46.19;100958.16;4986413;27;99944;-72
2024/03/21 00:41:46;;;;;;;;;;;;;;;12.29;46.30;100960.03;4959085;27;99205;-69
2024/03/21 00:44:12;;;;;;;;;;;;;;;12.27;46.24;100956.81;4982653;27;99016;-69
2024/03/21 00:46:39;;;;;;;;;;;;;;;12.27;46.10;100954.09;4979151;27;98598;-72
2024/03/21 00:49:06;;;;;;;;;;;;;;;12.27;46.24;100954.09;4990219;27;98286;-69
2024/03/21 00:51:33;;;;;;;;;;;;;;;12.26;46.19;100954.34;4981669;27;98503;-69
2024/03/21 00:53:59;;;;;;;;;;;;;;;12.26;46.21;100952.50;4988346;27;97874;-72
2024/03/21 00:56:29;;;;;;;;;;;;;;;12.24;46.37;100951.94;4962866;27;98301;-69
2024/03/21 00:58:58;;;;;;;;;;;;;;;12.23;46.12;100955.72;4970947;27;98165;-72
2024/03/21 01:01:27;;;;;;;;;;;;;;;12.22;46.33;100951.41;4964290;27;98326;-72
2024/03/21 01:03:56;;;;;;;;;;;;;;;12.22;46.37;100950.56;4985495;27;98087;-72
2024/03/21 01:06:22;;;;;;;;;;;;;;;12.21;46.32;100949.75;4970179;27;98184;-72
2024/03/21 01:08:48;;;;;;;;;;;;;;;12.20;46.23;100953.53;4986245;27;100106;-72
2024/03/21 01:11:15;;;;;;;;;;;;;;;12.20;46.17;100953.53;4969134;27;98140;-70
2024/03/21 01:13:41;;;;;;;;;;;;;;;12.19;46.25;100953.81;4983647;27;98536;-69
2024/03/21 01:16:11;;;;;;;;;;;;;;;12.19;46.22;100946.50;4973666;27;99558;-72
2024/03/21 01:18:38;;;;;;;;;;;;;;;12.19;46.14;100945.72;4981289;27;101443;-69
2024/03/21 01:21:05;;;;;;;;;;;;;;;12.18;46.18;100944.91;4944783;27;98464;-72
2024/03/21 01:23:32;;;;;;;;;;;;;;;12.18;46.17;100946.75;4970279;27;98877;-69
2024/03/21 01:25:59;;;;;;;;;;;;;;;12.17;46.27;100942.44;4997840;27;98368;-69
2024/03/21 01:28:25;;;;;;;;;;;;;;;12.16;46.25;100943.53;4970646;27;98136;-69
2024/03/21 01:30:51;;;;;;;;;;;;;;;12.13;46.20;100936.75;4977735;27;99249;-69
2024/03/21 01:33:18;;;;;;;;;;;;;;;12.13;46.18;100936.75;4942707;28;98444;-69
2024/03/21 01:35:44;;;;;;;;;;;;;;;12.12;46.08;100942.44;4974267;27;98117;-69
2024/03/21 01:38:12;;;;;;;;;;;;;;;12.09;46.15;100934.84;4949833;27;98363;-72
2024/03/21 01:40:39;;;;;;;;;;;;;;;12.09;46.17;100937.56;4970624;27;99435;-72
2024/03/21 01:43:22;;;;;;;;;;;;;;;12.07;46.42;100932.44;4948302;27;98057;-69
2024/03/21 01:46:13;;;;;;;;;;;;;;;12.06;46.23;100928.09;4965989;27;97988;-69
2024/03/21 01:48:44;;;;;;;;;;;;;;;12.05;46.25;100929.16;4957929;27;98032;-69
2024/03/21 01:51:11;;;;;;;;;;;;;;;12.03;46.30;100932.16;4948665;27;98690;-69
2024/03/21 01:53:39;;;;;;;;;;;;;;;12.03;46.17;100921.34;4965336;27;97953;-69
2024/03/21 01:56:06;;;;;;;;;;;;;;;12.01;46.32;100923.47;4934151;28;98196;-69
2024/03/21 01:58:32;;;;;;;;;;;;;;;12.02;46.32;100921.59;4945971;27;99357;-72
2024/03/21 02:01:14;;;;;;;;;;;;;;;12.00;46.27;100915.66;4949907;27;100486;-72
2024/03/21 02:03:41;;;;;;;;;;;;;;;11.99;46.31;100917.53;4960939;27;99619;-72
2024/03/21 02:06:08;;;;;;;;;;;;;;;11.98;46.25;100910.50;4963247;28;98408;-69
2024/03/21 02:08:34;;;;;;;;;;;;;;;11.99;46.40;100911.34;4947595;27;98448;-69
2024/03/21 02:11:00;;;;;;;;;;;;;;;11.98;46.49;100923.19;4978430;27;98414;-72
2024/03/21 02:13:27;;;;;;;;;;;;;;;11.97;46.35;100921.59;4952770;27;98155;-69
2024/03/21 02:15:53;;;;;;;;;;;;;;;11.96;46.26;100912.66;4950817;27;98310;-72
2024/03/21 02:18:19;;;;;;;;;;;;;;;11.97;46.41;100924.28;4973531;27;98299;-69
2024/03/21 02:20:46;;;;;;;;;;;;;;;11.96;46.28;100919.97;4957660;27;100244;-69
2024/03/21 02:23:12;;;;;;;;;;;;;;;11.96;46.57;100922.66;4982370;27;99488;-69
2024/03/21 02:25:39;;;;;;;;;;;;;;;11.95;46.40;100921.03;4967108;27;98805;-73
2024/03/21 02:28:08;;;;;;;;;;;;;;;11.94;46.32;100920.22;4980650;27;98563;-72
2024/03/21 02:30:34;;;;;;;;;;;;;;;11.94;46.30;100922.09;4995799;27;98215;-72
2024/03/21 02:33:00;;;;;;;;;;;;;;;11.93;46.41;100921.28;4966831;27;98250;-72
2024/03/21 02:35:27;;;;;;;;;;;;;;;11.94;46.32;100927.50;4999936;27;98278;-72
2024/03/21 02:37:53;;;;;;;;;;;;;;;11.92;45.92;100910.78;4999311;27;97933;-69
2024/03/21 02:40:19;;;;;;;;;;;;;;;11.92;46.27;100908.06;4966407;27;98252;-69
2024/03/21 02:42:47;;;;;;;;;;;;;;;11.92;46.30;100902.66;4977971;27;99902;-71
2024/03/21 02:45:13;;;;;;;;;;;;;;;11.91;46.34;100901.84;4970825;27;98252;-72
2024/03/21 02:47:39;;;;;;;;;;;;;;;11.91;46.39;100911.84;4979633;27;98411;-69
2024/03/21 02:50:06;;;;;;;;;;;;;;;11.90;46.30;100902.91;4964156;27;98120;-71
2024/03/21 02:52:32;;;;;;;;;;;;;;;11.90;46.31;100902.09;4977371;27;98117;-69
2024/03/21 02:54:59;;;;;;;;;;;;;;;11.89;46.23;100903.19;4965200;27;101667;-72
2024/03/21 02:57:25;;;;;;;;;;;;;;;11.88;46.36;100905.06;4981616;27;98161;-69
2024/03/21 02:59:52;;;;;;;;;;;;;;;11.88;46.46;100913.19;4962247;27;98275;-72
2024/03/21 03:02:18;;;;;;;;;;;;;;;11.87;46.30;100898.06;4965971;27;98274;-72
2024/03/21 03:04:47;;;;;;;;;;;;;;;11.86;46.35;100899.13;4960758;27;98339;-72
2024/03/21 03:07:13;;;;;;;;;;;;;;;11.86;46.31;100896.41;4964284;27;99553;-69
2024/03/21 03:09:39;;;;;;;;;;;;;;;11.86;46.42;100906.41;4976401;27;98169;-72
2024/03/21 03:12:06;;;;;;;;;;;;;;;11.85;46.44;100902.09;4957083;27;98989;-72
2024/03/21 03:14:32;;;;;;;;;;;;;;;11.85;46.36;100904.78;4956353;27;98264;-68
2024/03/21 03:16:59;;;;;;;;;;;;;;;11.85;46.28;100904.78;4997108;27;98333;-69
2024/03/21 03:19:25;;;;;;;;;;;;;;;11.84;46.29;100897.78;4985029;27;98381;-69
2024/03/21 03:21:52;;;;;;;;;;;;;;;11.84;46.44;100901.28;4972672;27;97996;-72
2024/03/21 03:24:18;;;;;;;;;;;;;;;11.84;46.34;100901.28;4982434;27;98182;-69
2024/03/21 03:26:44;;;;;;;;;;;;;;;11.83;46.13;100896.09;4965743;27;99519;-72
2024/03/21 03:29:11;;;;;;;;;;;;;;;11.83;46.36;100901.50;4979299;27;98104;-69
2024/03/21 03:31:37;;;;;;;;;;;;;;;11.83;46.36;100901.50;4963952;27;98356;-72
2024/03/21 03:36:49;;;;;;;;;;;;;;;11.82;46.44;100886.38;4978285;27;98169;-69
2024/03/21 03:39:15;;;;;;;;;;;;;;;11.82;46.34;100889.88;4986117;27;98508;-70
2024/03/21 03:41:42;;;;;;;;;;;;;;;11.82;46.40;100884.50;4984688;27;97969;-72
2024/03/21 03:44:08;;;;;;;;;;;;;;;11.81;46.36;100885.56;4980194;27;98000;-72
2024/03/21 03:46:34;;;;;;;;;;;;;;;11.81;46.31;100885.56;4998580;27;98670;-72
2024/03/21 03:49:01;;;;;;;;;;;;;;;11.82;46.21;100894.47;5000150;27;99501;-69
2024/03/21 03:51:27;;;;;;;;;;;;;;;11.80;46.31;100892.88;4958904;27;98054;-69
2024/03/21 03:53:53;;;;;;;;;;;;;;;11.79;46.52;100896.66;4977485;27;98745;-72
2024/03/21 03:56:19;;;;;;;;;;;;;;;11.80;46.24;100900.97;4991247;27;99055;-72
2024/03/21 03:58:46;;;;;;;;;;;;;;;11.79;46.44;100898.53;4965613;27;98879;-72
2024/03/21 04:01:12;;;;;;;;;;;;;;;11.79;46.32;100903.94;4967139;27;99071;-69
2024/03/21 04:03:39;;;;;;;;;;;;;;;11.80;46.40;100892.06;4970598;27;98468;-69
2024/03/21 04:06:05;;;;;;;;;;;;;;;11.78;46.55;100900.41;4982138;27;98564;-72
2024/03/21 04:08:32;;;;;;;;;;;;;;;11.78;46.37;100886.91;4969727;27;98197;-69
2024/03/21 04:10:58;;;;;;;;;;;;;;;11.78;46.54;100889.59;4978595;27;98165;-72
2024/03/21 04:13:25;;;;;;;;;;;;;;;11.78;46.20;100884.19;5000207;27;98004;-72
2024/03/21 04:15:53;;;;;;;;;;;;;;;11.77;46.53;100890.69;4963593;27;98428;-69
2024/03/21 04:18:19;;;;;;;;;;;;;;;11.77;46.49;100887.19;4976649;27;98309;-72
2024/03/21 04:20:45;;;;;;;;;;;;;;;11.76;46.67;100889.06;4964331;27;97996;-69
2024/03/21 04:23:12;;;;;;;;;;;;;;;11.76;46.18;100888.25;4962819;27;98263;-72
2024/03/21 04:25:39;;;;;;;;;;;;;;;11.76;46.48;100886.38;4983384;27;98561;-69
2024/03/21 04:28:05;;;;;;;;;;;;;;;11.76;46.33;100888.25;4980417;27;98322;-69
2024/03/21 04:30:32;;;;;;;;;;;;;;;11.76;46.35;100888.25;4984672;27;100067;-72
2024/03/21 04:32:59;;;;;;;;;;;;;;;11.76;46.39;100890.97;4981425;27;99337;-72
2024/03/21 04:35:26;;;;;;;;;;;;;;;11.76;46.36;100886.38;4997373;27;101310;-69
2024/03/21 04:37:52;;;;;;;;;;;;;;;11.76;46.46;100882.88;5000860;27;99510;-72
2024/03/21 04:40:18;;;;;;;;;;;;;;;11.76;46.43;100885.56;4979150;27;98623;-69
2024/03/21 04:42:45;;;;;;;;;;;;;;;11.75;46.48;100887.47;4967096;27;98114;-69
2024/03/21 04:45:11;;;;;;;;;;;;;;;11.75;46.37;100883.91;4983036;27;98199;-72
2024/03/21 04:47:38;;;;;;;;;;;;;;;11.75;46.47;100883.91;4965358;27;98252;-72
2024/03/21 04:50:05;;;;;;;;;;;;;;;11.74;46.44;100887.69;4994592;27;98343;-72
2024/03/21 04:52:32;;;;;;;;;;;;;;;11.73;46.49;100886.09;4969620;27;98345;-72
2024/03/21 04:54:58;;;;;;;;;;;;;;;11.74;46.25;100883.09;4977037;27;98300;-72
2024/03/21 04:57:25;;;;;;;;;;;;;;;11.74;46.42;100885.00;4968051;27;98104;-72
2024/03/21 04:59:54;;;;;;;;;;;;;;;11.74;46.48;100885.00;4965627;27;97840;-72
2024/03/21 05:02:20;;;;;;;;;;;;;;;11.74;46.39;100887.69;5000354;27;98188;-72
2024/03/21 05:04:47;;;;;;;;;;;;;;;11.73;46.41;100891.47;4986423;27;100603;-72
2024/03/21 05:07:13;;;;;;;;;;;;;;;11.74;46.32;100891.22;4999643;27;99536;-72
2024/03/21 05:09:39;;;;;;;;;;;;;;;11.74;46.29;100898.50;4978343;27;98197;-68
2024/03/21 05:12:07;;;;;;;;;;;;;;;11.75;46.62;100909.06;4963635;27;98844;-69
2024/03/21 05:14:34;;;;;;;;;;;;;;;11.76;46.29;100901.75;4985623;27;99487;-69
2024/03/21 05:17:02;;;;;;;;;;;;;;;11.75;46.37;100906.38;4989436;27;99759;-72
2024/03/21 05:19:28;;;;;;;;;;;;;;;11.77;46.50;100900.69;5000870;27;98355;-72
2024/03/21 05:21:54;;;;;;;;;;;;;;;11.77;46.33;100898.78;4987409;27;98067;-72
2024/03/21 05:24:20;;;;;;;;;;;;;;;11.78;46.53;100892.31;4990388;27;97954;-69
2024/03/21 05:26:47;;;;;;;;;;;;;;;11.79;46.43;100891.25;4985099;27;98226;-72
2024/03/21 05:29:13;;;;;;;;;;;;;;;11.80;46.20;100892.06;4984100;27;98095;-69
2024/03/21 05:31:40;;;;;;;;;;;;;;;11.82;46.48;100892.59;4978958;27;98164;-66
2024/03/21 05:34:06;;;;;;;;;;;;;;;11.83;46.29;100891.56;4980005;27;98167;-72
2024/03/21 05:36:32;;;;;;;;;;;;;;;11.85;46.41;100883.19;4976289;27;98779;-69
2024/03/21 05:38:58;;;;;;;;;;;;;;;11.85;46.31;100886.69;4978960;27;98377;-73
2024/03/21 05:41:25;;;;;;;;;;;;;;;11.88;46.32;100890.75;4983373;27;98335;-72
2024/03/21 05:43:51;;;;;;;;;;;;;;;11.90;46.46;100894.00;4960835;27;98254;-71
2024/03/21 05:46:19;;;;;;;;;;;;;;;11.92;46.37;100889.16;4976344;27;98414;-69
2024/03/21 05:48:45;;;;;;;;;;;;;;;11.94;46.36;100889.69;4982979;27;98367;-69
2024/03/21 05:51:11;;;;;;;;;;;;;;;11.96;46.30;100885.66;4974623;27;98214;-72
2024/03/21 05:53:41;;;;;;;;;;;;;;;11.99;46.38;100885.13;4968745;27;98376;-69
2024/03/21 05:56:07;;;;;;;;;;;;;;;12.03;46.48;100883.50;4973575;27;99488;-72
2024/03/21 05:58:34;;;;;;;;;;;;;;;12.08;46.22;100887.31;4980624;27;98502;-72
2024/03/21 06:03:33;;;;;;;;;;;;;;;12.17;46.33;100889.19;4986459;27;98072;-72
2024/03/21 06:06:00;;;;;;;;;;;;;;;12.21;46.25;100886.78;4993981;27;98227;-69
2024/03/21 06:08:27;;;;;;;;;;;;;;;12.25;46.13;100887.88;4987363;27;99435;-72
2024/03/21 06:10:53;;;;;;;;;;;;;;;12.28;46.20;100882.75;4980916;27;98069;-72
2024/03/21 06:13:20;;;;;;;;;;;;;;;12.36;46.17;100886.00;4968553;27;98220;-68
2024/03/21 06:15:47;;;;;;;;;;;;;;;12.38;46.06;100879.25;4957625;27;100709;-72
2024/03/21 06:18:14;;;;;;;;;;;;;;;12.43;46.01;100875.72;4983083;27;98428;-72
2024/03/21 06:20:41;;;;;;;;;;;;;;;12.48;46.20;100879.25;4962802;27;98263;-72
2024/03/21 06:23:08;;;;;;;;;;;;;;;12.55;46.23;100878.97;4968741;27;98212;-69
2024/03/21 06:25:35;;;;;;;;;;;;;;;12.59;46.25;100879.25;4980627;27;98259;-72
2024/03/21 06:28:01;;;;;;;;;;;;;;;12.64;46.16;100882.75;4982854;27;98171;-72
2024/03/21 06:30:28;;;;;;;;;;;;;;;12.69;45.94;100879.22;4958913;27;98100;-69
2024/03/21 06:32:54;;;;;;;;;;;;;;;12.73;46.04;100888.44;4963639;27;98494;-69
2024/03/21 06:35:20;;;;;;;;;;;;;;;12.79;45.90;100881.94;4959492;27;100010;-72
2024/03/21 06:37:56;;;;;;;;;;;;;;;12.84;45.95;100879.22;4978974;27;98459;-72
2024/03/21 06:40:23;;;;;;;;;;;;;;;12.89;45.93;100881.09;4980660;27;98563;-68
2024/03/21 06:42:49;;;;;;;;;;;;;;;12.91;45.94;100877.06;4965131;27;98239;-69
2024/03/21 06:45:16;;;;;;;;;;;;;;;12.93;45.95;100883.03;4964779;27;98138;-68
2024/03/21 06:47:44;;;;;;;;;;;;;;;12.95;46.14;100888.94;4976080;27;98048;-69
2024/03/21 06:50:16;;;;;;;;;;;;;;;13.00;46.16;100894.34;4980938;27;98005;-69
2024/03/21 06:52:46;;;;;;;;;;;;;;;13.08;45.86;100889.47;4964514;27;97836;-69
2024/03/21 06:55:13;;;;;;;;;;;;;;;13.17;46.03;100891.38;4985866;27;102111;-72
2024/03/21 06:57:42;;;;;;;;;;;;;;;13.25;45.94;100885.41;4964558;27;98213;-68
2024/03/21 07:00:12;;;;;;;;;;;;;;;13.33;45.88;100884.03;4966518;27;98119;-69
2024/03/21 07:02:41;;;;;;;;;;;;;;;13.40;46.10;100878.31;4994913;27;98127;-72
2024/03/21 07:05:08;;;;;;;;;;;;;;;13.49;45.94;100882.91;4966214;27;97958;-72
2024/03/21 07:07:35;;;;;;;;;;;;;;;13.61;45.76;100884.50;4965612;27;97934;-72
2024/03/21 07:10:01;;;;;;;;;;;;;;;13.67;45.72;100873.34;4966169;27;98564;-69
2024/03/21 07:12:27;;;;;;;;;;;;;;;13.73;45.88;100868.72;4982041;27;99645;-69
2024/03/21 07:14:53;;;;;;;;;;;;;;;13.77;45.70;100868.97;4965688;27;98080;-72
2024/03/21 07:17:20;;;;;;;;;;;;;;;13.78;45.82;100873.28;4978438;27;98516;-72
2024/03/21 07:19:47;;;;;;;;;;;;;;;13.79;45.66;100880.31;4969407;27;98546;-69
2024/03/21 07:22:14;;;;;;;;;;;;;;;13.79;45.99;100878.44;4978595;27;98283;-72
2024/03/21 07:24:41;;;;;;;;;;;;;;;13.82;45.82;100880.59;4982869;27;98190;-72
2024/03/21 07:27:08;;;;;;;;;;;;;;;13.83;46.14;100881.38;4978634;27;98348;-69
2024/03/21 07:29:35;;;;;;;;;;;;;;;13.85;45.78;100882.75;5002342;27;98075;-69
2024/03/21 07:32:05;;;;;;;;;;;;;;;13.87;46.04;100883.28;4968312;27;100364;-69
2024/03/21 07:34:32;;;;;;;;;;;;;;;13.90;45.94;100881.91;4999294;27;99514;-72
2024/03/21 07:36:58;;;;;;;;;;;;;;;13.91;45.76;100876.22;4992959;27;100075;-69
2024/03/21 07:39:25;;;;;;;;;;;;;;;13.95;45.94;100882.69;4967518;27;98191;-69
2024/03/21 07:41:51;;;;;;;;;;;;;;;14.00;45.84;100882.66;4976690;27;99852;-72
2024/03/21 07:44:17;;;;;;;;;;;;;;;14.05;45.77;100884.53;4978396;27;98975;-72
2024/03/21 07:46:43;;;;;;;;;;;;;;;14.10;45.69;100884.50;4965153;27;98255;-72
2024/03/21 07:49:09;;;;;;;;;;;;;;;14.16;45.75;100882.56;4977247;27;98146;-72
2024/03/21 07:51:36;;;;;;;;;;;;;;;14.20;45.67;100887.16;4978822;27;98471;-69
2024/03/21 07:54:02;;;;;;;;;;;;;;;14.23;45.72;100883.88;4983193;27;98290;-69
2024/03/21 07:56:28;;;;;;;;;;;;;;;14.27;46.00;100884.13;4986697;27;99063;-69
2024/03/21 07:58:56;;;;;;;;;;;;;;;14.32;45.89;100886.00;4964639;27;98252;-68
2024/03/21 08:01:24;;;;;;;;;;;;;;;14.32;46.00;100884.09;4970039;27;98574;-69
2024/03/21 08:03:51;;;;;;;;;;;;;;;14.34;45.69;100879.16;4985637;27;98743;-69
2024/03/21 08:06:17;;;;;;;;;;;;;;;14.39;46.15;100875.63;4987396;27;98149;-72
2024/03/21 08:08:43;;;;;;;;;;;;;;;14.45;45.82;100874.50;4978217;27;97996;-69
2024/03/21 08:11:10;;;;;;;;;;;;;;;14.53;46.00;100879.34;4961073;27;99506;-69
2024/03/21 08:13:37;;;;;;;;;;;;;;;14.63;45.72;100873.03;4997700;27;98011;-72
2024/03/21 08:16:03;;;;;;;;;;;;;;;14.72;45.61;100871.31;4967602;27;98763;-69
2024/03/21 08:18:29;;;;;;;;;;;;;;;14.78;45.54;100872.09;4981795;27;97902;-72
2024/03/21 08:20:57;;;;;;;;;;;;;;;14.81;45.82;100872.31;4984354;27;98320;-69
2024/03/21 08:23:23;;;;;;;;;;;;;;;14.86;45.89;100877.72;4987054;27;102820;-69
2024/03/21 08:25:50;;;;;;;;;;;;;;;14.88;45.79;100872.78;4982979;27;98582;-69
2024/03/21 08:28:16;;;;;;;;;;;;;;;14.88;45.91;100872.78;4966759;27;98566;-69
2024/03/21 08:30:46;;;;;;;;;;;;;;;14.90;45.66;100878.75;4982492;27;98283;-72
2024/03/21 08:33:15;;;;;;;;;;;;;;;14.95;46.01;100880.59;4981140;27;98052;-72
2024/03/21 08:35:42;;;;;;;;;;;;;;;15.04;45.91;100883.50;5006739;27;98173;-72
2024/03/21 08:38:09;;;;;;;;;;;;;;;15.12;45.52;100886.41;4981764;27;98068;-72
2024/03/21 08:40:36;;;;;;;;;;;;;;;15.20;45.81;100879.53;4967405;27;100762;-69
2024/03/21 08:43:03;;;;;;;;;;;;;;;15.33;45.50;100886.19;5001838;27;98134;-69
2024/03/21 08:45:29;;;;;;;;;;;;;;;15.42;45.63;100879.84;4985445;27;98351;-69
2024/03/21 08:47:57;;;;;;;;;;;;;;;15.50;45.63;100881.09;4963941;27;98372;-69
2024/03/21 08:50:23;;;;;;;;;;;;;;;15.58;45.52;100885.88;4985778;27;99459;-69
2024/03/21 08:52:50;;;;;;;;;;;;;;;15.66;45.32;100881.75;5001397;27;98334;-68
2024/03/21 08:55:16;;;;;;;;;;;;;;;15.77;45.45;100885.97;4994887;27;98169;-72
2024/03/21 08:57:42;;;;;;;;;;;;;;;15.84;45.37;100882.88;4984744;27;98093;-71
2024/03/21 09:00:10;;;;;;;;;;;;;;;15.91;45.47;100883.31;4975217;27;98153;-68
2024/03/21 09:02:36;;;;;;;;;;;;;;;15.94;45.49;100877.28;4988416;27;98320;-71
2024/03/21 09:05:03;;;;;;;;;;;;;;;15.95;45.65;100885.19;4999617;27;98532;-68
2024/03/21 09:07:29;;;;;;;;;;;;;;;15.97;45.48;100886.78;5001712;27;98693;-72
2024/03/21 09:09:55;;;;;;;;;;;;;;;15.97;45.64;100892.22;4969333;27;98414;-69
2024/03/21 09:12:21;;;;;;;;;;;;;;;15.96;45.69;100905.00;4970609;27;98044;-72
2024/03/21 09:14:48;;;;;;;;;;;;;;;15.95;45.69;100920.53;4994469;27;98124;-69
2024/03/21 09:17:15;;;;;;;;;;;;;;;15.96;45.78;100915.88;4969854;27;98153;-69
2024/03/21 09:19:41;;;;;;;;;;;;;;;15.95;45.77;100928.69;4969054;27;98694;-72
2024/03/21 09:22:08;;;;;;;;;;;;;;;16.02;45.86;100936.44;4987657;27;98181;-72
2024/03/21 09:24:34;;;;;;;;;;;;;;;16.07;45.67;100938.28;4970479;27;98445;-72
2024/03/21 09:27:00;;;;;;;;;;;;;;;16.08;45.61;100942.66;4985762;27;97834;-72
2024/03/21 09:29:26;;;;;;;;;;;;;;;16.05;45.83;100944.03;4999268;27;98980;-69
2024/03/21 09:31:53;;;;;;;;;;;;;;;16.00;45.92;100954.19;4980890;27;109660;-72
2024/03/21 09:34:20;;;;;;;;;;;;;;;15.93;46.04;100959.97;4961227;27;98139;-72
2024/03/21 09:36:48;;;;;;;;;;;;;;;15.86;46.09;100959.50;4982646;27;98162;-68
2024/03/21 09:39:15;;;;;;;;;;;;;;;15.79;46.17;100973.44;5001102;27;101936;-72
2024/03/21 09:41:41;;;;;;;;;;;;;;;15.73;46.28;100968.38;4970941;27;100492;-69
2024/03/21 09:44:13;;;;;;;;;;;;;;;15.69;46.10;100968.13;4977065;27;98257;-69
2024/03/21 09:46:41;;;;;;;;;;;;;;;15.69;46.07;100976.28;4965230;27;98379;-69
2024/03/21 09:49:13;;;;;;;;;;;;;;;15.73;46.04;100982.75;4980956;27;99624;-69
2024/03/21 09:51:40;;;;;;;;;;;;;;;15.77;46.13;100991.94;4978421;27;98085;-69
2024/03/21 09:54:13;;;;;;;;;;;;;;;15.81;46.00;100994.91;4978861;27;99596;-70
2024/03/21 09:56:39;;;;;;;;;;;;;;;15.78;46.00;100987.31;4987512;27;98134;-68
2024/03/21 09:59:12;;;;;;;;;;;;;;;15.78;45.89;100990.84;4968749;27;98394;-71
2024/03/21 10:01:39;;;;;;;;;;;;;;;15.81;46.08;100990.28;4973665;27;98065;-71
2024/03/21 10:04:07;;;;;;;;;;;;;;;15.82;46.04;100997.31;4973786;27;98398;-71
2024/03/21 10:06:43;;;;;;;;;;;;;;;15.79;46.06;101002.53;4971112;27;98559;-68
2024/03/21 10:09:10;;;;;;;;;;;;;;;15.73;46.10;100996.34;4969058;27;99886;-71
2024/03/21 10:11:36;;;;;;;;;;;;;;;15.65;46.11;100996.97;4990754;27;98130;-71
2024/03/21 10:14:02;;;;;;;;;;;;;;;15.57;46.21;100995.66;4965866;27;98175;-68
2024/03/21 10:16:29;;;;;;;;;;;;;;;15.52;46.20;101008.47;4986993;27;98168;-71
2024/03/21 10:18:56;;;;;;;;;;;;;;;15.45;46.20;101012.38;4964671;27;97965;-70
2024/03/21 10:21:23;;;;;;;;;;;;;;;15.38;46.45;101019.22;4984505;27;98142;-68
2024/03/21 10:23:50;;;;;;;;;;;;;;;15.30;46.37;101019.84;4999877;27;99174;-68
2024/03/21 10:26:17;;;;;;;;;;;;;;;15.22;46.43;101019.34;4986488;27;98097;-69
2024/03/21 10:28:43;;;;;;;;;;;;;;;15.16;46.47;101011.53;4979482;27;98722;-71
2024/03/21 10:31:13;;;;;;;;;;;;;;;15.08;46.51;101009.44;4979562;27;98436;-71
2024/03/21 10:33:40;;;;;;;;;;;;;;;15.00;46.49;101010.84;4986428;27;98297;-68
2024/03/21 10:36:09;;;;;;;;;;;;;;;14.93;46.66;101002.22;4970796;27;98550;-68
2024/03/21 10:38:36;;;;;;;;;;;;;;;14.87;46.46;101006.88;4972276;27;100553;-71
2024/03/21 10:41:17;;;;;;;;;;;;;;;14.87;46.68;101000.66;4978379;27;99284;-68
2024/03/21 10:43:44;;;;;;;;;;;;;;;14.89;46.26;101003.88;5004901;27;98106;-72
2024/03/21 10:46:11;;;;;;;;;;;;;;;14.91;46.45;100999.78;4987992;27;98961;-71
2024/03/21 10:48:38;;;;;;;;;;;;;;;15.03;46.21;100998.63;4991220;27;98687;-71
2024/03/21 10:51:11;;;;;;;;;;;;;;;15.12;46.06;101005.06;4985007;27;98161;-68
2024/03/21 10:53:37;;;;;;;;;;;;;;;15.22;46.27;101013.13;5003204;27;97846;-68
2024/03/21 10:56:10;;;;;;;;;;;;;;;15.33;45.98;101000.28;4986201;27;99212;-72
2024/03/21 10:58:46;;;;;;;;;;;;;;;15.42;45.96;100996.63;4990631;27;98234;-68
2024/03/21 11:01:13;;;;;;;;;;;;;;;15.55;45.81;100986.97;4969948;27;98319;-68
2024/03/21 11:03:52;;;;;;;;;;;;;;;15.67;45.91;100987.41;4987618;27;98138;-69
2024/03/21 11:06:25;;;;;;;;;;;;;;;15.79;45.66;100984.31;4984050;27;98208;-67
2024/03/21 11:08:54;;;;;;;;;;;;;;;16.04;45.67;100985.13;4990383;27;98267;-69
2024/03/21 11:11:21;;;;;;;;;;;;;;;16.34;45.39;100990.13;4964825;27;98088;-72
2024/03/21 11:13:47;;;;;;;;;;;;;;;16.62;45.06;100976.69;4984357;27;98957;-68
2024/03/21 11:16:14;;;;;;;;;;;;;;;16.94;44.99;100984.13;4973519;27;97849;-71
2024/03/21 11:18:41;;;;;;;;;;;;;;;17.26;44.70;100980.56;5006786;27;98282;-72
2024/03/21 11:21:14;;;;;;;;;;;;;;;17.33;44.76;100985.59;5001316;27;98822;-68
2024/03/21 11:23:42;;;;;;;;;;;;;;;17.38;45.06;100975.44;4985796;27;98169;-72
2024/03/21 11:26:13;;;;;;;;;;;;;;;17.40;45.05;100969.69;5003669;27;97947;-68
2024/03/21 11:28:41;;;;;;;;;;;;;;;17.36;45.31;100969.47;4987672;27;117709;-69
2024/03/21 11:31:37;;;;;;;;;;;;;;;17.26;45.51;100974.31;4982772;27;98378;-72
2024/03/21 11:34:04;;;;;;;;;;;;;;;17.14;45.53;100972.06;4969507;27;98711;-72
2024/03/21 11:36:31;;;;;;;;;;;;;;;17.05;45.67;100969.22;4965533;27;98270;-69
2024/03/21 11:38:57;;;;;;;;;;;;;;;16.94;45.74;100965.06;5000048;27;98177;-69
2024/03/21 11:41:27;;;;;;;;;;;;;;;16.87;45.78;100976.31;4972420;27;97989;-69
2024/03/21 11:43:53;;;;;;;;;;;;;;;16.82;45.97;100972.84;4962089;27;98792;-68
2024/03/21 11:46:20;;;;;;;;;;;;;;;16.79;45.95;100974.28;4989190;27;98005;-69
2024/03/21 11:49:05;;;;;;;;;;;;;;;16.69;45.96;100974.41;4964639;27;98084;-72
2024/03/21 11:51:32;;;;;;;;;;;;;;;16.52;46.15;100980.38;4985870;27;98236;-72
2024/03/21 11:54:03;;;;;;;;;;;;;;;16.37;46.39;100980.59;4967099;27;98116;-69
2024/03/21 11:56:30;;;;;;;;;;;;;;;16.22;46.43;100976.16;4982164;27;98567;-68
2024/03/21 11:58:56;;;;;;;;;;;;;;;16.09;46.57;100972.25;4983405;27;98328;-69
2024/03/21 12:01:22;;;;;;;;;;;;;;;15.96;46.75;100956.66;4966843;27;100120;-69
2024/03/21 12:03:49;;;;;;;;;;;;;;;15.83;46.66;100963.59;4983924;27;98538;-71
2024/03/21 12:06:15;;;;;;;;;;;;;;;15.75;46.53;100963.44;4965206;27;97865;-72
2024/03/21 12:08:42;;;;;;;;;;;;;;;15.69;46.58;100965.41;4981272;27;98058;-71
2024/03/21 12:11:19;;;;;;;;;;;;;;;15.66;46.59;100974.13;5005145;27;99173;-71
2024/03/21 12:13:45;;;;;;;;;;;;;;;15.67;46.55;100976.56;4984992;27;98142;-68
2024/03/21 12:16:16;;;;;;;;;;;;;;;15.66;46.48;100985.81;4981846;27;101750;-68
2024/03/21 12:18:43;;;;;;;;;;;;;;;15.60;46.58;100980.69;4968467;27;97906;-68
2024/03/21 12:21:19;;;;;;;;;;;;;;;15.56;46.79;100985.06;4999733;27;98191;-68
2024/03/21 12:23:46;;;;;;;;;;;;;;;15.54;46.65;100996.25;4985766;27;98872;-69
2024/03/21 12:26:12;;;;;;;;;;;;;;;15.52;46.65;100997.63;4971241;27;98024;-71
2024/03/21 12:28:39;;;;;;;;;;;;;;;15.50;46.58;101010.69;5005406;27;98226;-68
2024/03/21 12:31:10;;;;;;;;;;;;;;;15.48;46.84;101010.97;4989785;27;98168;-69
2024/03/21 12:33:36;;;;;;;;;;;;;;;15.44;46.77;101002.59;4971680;27;98123;-68
2024/03/21 12:36:03;;;;;;;;;;;;;;;15.43;46.50;101009.09;4980933;27;98926;-68
2024/03/21 12:38:30;;;;;;;;;;;;;;;15.42;46.63;101012.94;4969742;27;98081;-71
2024/03/21 12:40:59;;;;;;;;;;;;;;;15.51;46.24;101017.75;4997509;27;100034;-68